Terminal Aerodrome Forecast
Issued by NWS Twin Cities, MN

Home | Current Version | Previous Version | Graphics & Text | Print | Product List | Glossary On
Versions: 1 2 3 4 5 6 7 8 9 10 11 12 13 14 15 16 17 18 19 20 21 22 23 24 25 26 27 28 29 30
000
FTUS43 KMPX 022000 AAA
TAFMSP
TAF AMD
KMSP 022058Z 0221/0324 26011KT P6SM FEW050 FEW250
     FM030200 21006KT P6SM FEW200
     FM031200 16007KT P6SM SCT100 BKN200
     FM031500 16011KT P6SM VCSH SCT040 BKN100
     FM032100 17012KT P6SM SCT030 SCT080=

USA.gov is the U.S. government's official web portal to all federal, state and local government web resources and services.